Time;durP1;ratioP1;P1;durP2;ratioP2;P2;SDS_P1;SDS_P2;PMS_P1;PMS_P2;Temp;Humidity;BMP_temperature;BMP_pressure;BME280_temperature;BME280_humidity;BME280_pressure;Samples;Min_cycle;Max_cycle;Signal;HPM_P1;HPM_P2
2022/02/11 00:07:25;;;;;;;48.67;29.77;;;5.40;99.90;;;;;;5032285;28;20052;-77
2022/02/11 00:09:53;;;;;;;62.50;38.55;;;5.50;99.90;;;;;;5031373;28;20049;-78
2022/02/11 00:12:22;;;;;;;64.72;38.30;;;5.60;99.90;;;;;;5031817;28;20034;-74
2022/02/11 00:15:25;;;;;;;69.30;37.75;;;5.70;99.90;;;;;;5031484;28;20387;-70
2022/02/11 00:17:42;;;;;;;52.97;33.63;;;5.80;99.90;;;;;;5013521;28;20522;-76
2022/02/11 00:20:09;;;;;;;61.83;35.92;;;5.80;99.90;;;;;;5031754;28;20368;-73
2022/02/11 00:22:36;;;;;;;60.30;34.17;;;5.80;99.90;;;;;;5031532;28;20046;-75
2022/02/11 00:25:04;;;;;;;46.08;26.58;;;5.80;99.90;;;;;;5031305;28;20128;-76
2022/02/11 00:35:42;;;;;;;;;;;5.30;99.90;;;;;;5031901;28;20038;-72
2022/02/11 00:38:16;;;;;;;72.07;40.40;;;5.40;99.90;;;;;;5013589;28;19932;-73
2022/02/11 00:41:49;;;;;;;98.50;53.38;;;5.30;99.90;;;;;;5030925;28;20033;-73
2022/02/11 01:02:14;;;;;;;106.95;61.00;;;4.90;99.90;;;;;;5031129;28;20368;-71
2022/02/11 01:04:42;;;;;;;106.68;61.50;;;4.90;99.90;;;;;;5030386;28;20383;-72
2022/02/11 01:07:12;;;;;;;106.43;61.00;;;5.00;99.90;;;;;;5031183;28;20104;-71
2022/02/11 01:09:41;;;;;;;103.93;59.55;;;4.90;99.90;;;;;;5030448;28;20037;-72
2022/02/11 01:12:11;;;;;;;94.30;51.95;;;4.90;99.90;;;;;;5013686;28;20379;-71
2022/02/11 01:14:47;;;;;;;100.80;54.03;;;4.90;99.90;;;;;;5030651;28;20099;-74
2022/02/11 01:20:13;;;;;;;76.03;44.08;;;5.00;99.90;;;;;;5010832;28;20048;-74
2022/02/11 01:25:33;;;;;;;79.20;45.47;;;4.80;99.90;;;;;;5010650;28;20052;-71
2022/02/11 01:28:16;;;;;;;76.15;45.45;;;4.80;99.90;;;;;;5011128;28;20407;-70
2022/02/11 01:38:55;;;;;;;72.03;41.60;;;4.60;99.90;;;;;;5010967;28;20046;-73
2022/02/11 01:46:55;;;;;;;78.15;43.40;;;4.80;99.90;;;;;;5010698;28;20041;-73
2022/02/11 02:03:42;;;;;;;71.95;40.20;;;4.70;99.90;;;;;;5014491;28;20092;-69
2022/02/11 02:06:36;;;;;;;72.50;38.85;;;4.70;99.90;;;;;;5013858;28;20037;-68
2022/02/11 02:10:12;;;;;;;63.33;40.40;;;4.70;99.90;;;;;;5013841;28;20054;-72
2022/02/11 02:15:28;;;;;;;56.42;33.88;;;4.70;99.90;;;;;;5013894;28;20034;-72
2022/02/11 02:18:11;;;;;;;54.08;31.02;;;4.60;99.90;;;;;;5006221;28;20060;-72
2022/02/11 02:58:11;;;;;;;49.78;30.10;;;4.10;99.90;;;;;;5013249;28;20518;-71
2022/02/11 04:55:41;;;;;;;42.45;26.48;;;3.90;99.90;;;;;;5011463;28;20379;-70
2022/02/11 05:00:54;;;;;;;33.47;17.58;;;3.80;99.90;;;;;;5010983;28;20387;-72
2022/02/11 05:03:21;;;;;;;33.75;21.45;;;3.20;99.90;;;;;;5011058;28;20042;-74
2022/02/11 05:05:51;;;;;;;37.20;22.98;;;3.50;99.90;;;;;;5011505;28;20042;-71
2022/02/11 05:08:20;;;;;;;41.40;24.55;;;3.70;99.90;;;;;;5011044;28;20036;-71
2022/02/11 05:10:50;;;;;;;43.75;25.13;;;3.80;99.90;;;;;;5010970;28;20041;-71
2022/02/11 05:13:18;;;;;;;53.08;30.23;;;3.70;99.90;;;;;;5011348;28;20037;-72
2022/02/11 05:15:46;;;;;;;56.13;31.60;;;3.70;99.90;;;;;;5010785;28;20049;-69
2022/02/11 05:18:13;;;;;;;55.45;31.60;;;3.70;99.90;;;;;;5011013;28;20038;-71
2022/02/11 05:20:43;;;;;;;48.88;30.85;;;3.90;99.90;;;;;;5011414;28;20042;-73
2022/02/11 05:23:13;;;;;;;48.78;30.80;;;3.70;99.90;;;;;;5013243;28;20038;-75
2022/02/11 05:25:42;;;;;;;47.33;27.85;;;3.70;99.90;;;;;;5015051;28;20387;-74
2022/02/11 05:28:11;;;;;;;50.15;29.60;;;3.70;99.90;;;;;;5015253;28;20510;-72
2022/02/11 05:30:40;;;;;;;49.40;29.98;;;3.60;99.90;;;;;;5014794;28;20050;-72
2022/02/11 05:33:09;;;;;;;59.33;31.67;;;3.50;99.90;;;;;;5015099;28;20415;-71
2022/02/11 05:35:40;;;;;;;59.97;36.47;;;3.30;99.90;;;;;;5015027;28;20040;-72
2022/02/11 05:38:09;;;;;;;65.22;37.38;;;3.20;99.90;;;;;;5014952;28;20539;-72
2022/02/11 05:40:37;;;;;;;61.47;35.35;;;3.00;99.90;;;;;;5014872;28;20122;-71
2022/02/11 05:43:04;;;;;;;61.40;36.40;;;3.10;99.90;;;;;;5014621;28;20034;-72
2022/02/11 05:45:31;;;;;;;63.17;38.25;;;3.20;99.90;;;;;;5014535;28;20048;-73
2022/02/11 05:47:59;;;;;;;63.97;35.10;;;3.20;99.90;;;;;;5014993;28;20042;-72
2022/02/11 05:50:26;;;;;;;57.78;32.50;;;3.10;99.90;;;;;;5014711;28;20042;-72
2022/02/11 05:52:59;;;;;;;55.97;33.13;;;3.20;99.90;;;;;;5014423;28;20539;-73
2022/02/11 05:55:27;;;;;;;63.92;34.25;;;3.40;99.90;;;;;;5014524;28;20038;-73
2022/02/11 05:57:55;;;;;;;59.65;35.38;;;3.40;99.90;;;;;;5014518;28;20044;-72
2022/02/11 06:00:26;;;;;;;61.10;35.58;;;3.20;99.90;;;;;;4981453;28;20479;-75
2022/02/11 06:02:54;;;;;;;68.30;36.75;;;3.20;99.90;;;;;;5014187;28;20068;-72
2022/02/11 06:05:21;;;;;;;63.95;35.92;;;3.20;99.90;;;;;;5012983;28;20049;-73
2022/02/11 06:07:50;;;;;;;60.03;34.30;;;3.10;99.90;;;;;;4935432;28;20069;-70
2022/02/11 06:10:17;;;;;;;49.60;29.77;;;3.00;99.90;;;;;;4994207;28;20052;-69
2022/02/11 06:12:44;;;;;;;40.15;25.13;;;3.10;99.90;;;;;;4994029;28;20035;-71
2022/02/11 06:15:11;;;;;;;34.30;24.00;;;3.40;99.90;;;;;;4994329;28;20046;-72
2022/02/11 06:17:39;;;;;;;43.03;25.75;;;2.90;99.90;;;;;;4994644;28;20038;-71
2022/02/11 06:20:08;;;;;;;60.95;36.20;;;3.10;99.90;;;;;;5007664;28;20053;-72
2022/02/11 06:22:35;;;;;;;86.15;45.92;;;3.30;99.90;;;;;;5013810;28;20733;-72
2022/02/11 06:25:03;;;;;;;89.90;45.55;;;3.20;99.90;;;;;;5012064;28;20042;-72
2022/02/11 06:27:30;;;;;;;118.70;61.10;;;3.30;99.90;;;;;;5013579;28;20049;-73
2022/02/11 06:29:57;;;;;;;90.60;49.00;;;3.60;99.90;;;;;;4963998;28;20034;-70
2022/02/11 06:32:26;;;;;;;36.22;26.25;;;3.80;99.90;;;;;;4998202;28;20057;-72
2022/02/11 06:34:56;;;;;;;36.20;23.00;;;3.70;99.90;;;;;;5012975;28;20045;-72
2022/02/11 06:37:24;;;;;;;29.83;21.73;;;3.50;99.90;;;;;;5023581;28;20044;-74
2022/02/11 06:39:51;;;;;;;35.17;22.65;;;3.50;99.90;;;;;;5023567;28;20468;-71
2022/02/11 06:42:18;;;;;;;34.92;23.60;;;3.40;99.90;;;;;;5021061;28;20035;-69
2022/02/11 06:44:46;;;;;;;34.15;21.67;;;3.30;99.90;;;;;;5013890;28;20045;-71
2022/02/11 06:47:13;;;;;;;32.05;22.42;;;3.20;99.90;;;;;;5023636;28;20044;-72
2022/02/11 06:49:40;;;;;;;34.25;21.80;;;3.20;99.90;;;;;;5021717;28;20048;-71
2022/02/11 06:52:08;;;;;;;37.17;23.52;;;3.10;99.90;;;;;;5024416;28;20036;-71
2022/02/11 06:54:36;;;;;;;34.35;22.98;;;3.00;99.90;;;;;;5029520;28;20041;-71
2022/02/11 06:57:03;;;;;;;34.40;21.67;;;3.10;99.90;;;;;;5019615;28;20034;-70
2022/02/11 06:59:30;;;;;;;38.33;24.38;;;3.20;99.90;;;;;;5021620;28;20030;-71
2022/02/11 07:01:58;;;;;;;35.55;24.10;;;3.10;99.90;;;;;;5010165;28;20164;-72
2022/02/11 07:04:25;;;;;;;40.85;26.63;;;3.10;99.90;;;;;;5023524;28;20703;-74
2022/02/11 07:06:52;;;;;;;40.38;24.98;;;3.40;99.90;;;;;;5022468;28;20495;-71
2022/02/11 07:09:20;;;;;;;40.53;26.52;;;3.60;99.90;;;;;;5032843;28;20038;-72
2022/02/11 07:11:47;;;;;;;32.88;22.65;;;3.50;99.90;;;;;;5032783;28;20120;-73
2022/02/11 07:14:14;;;;;;;34.70;22.38;;;3.30;99.90;;;;;;5032542;28;20040;-71
2022/02/11 07:16:44;;;;;;;33.03;22.63;;;3.40;99.90;;;;;;5031667;28;20382;-72
2022/02/11 07:19:11;;;;;;;39.30;24.45;;;3.40;99.90;;;;;;5032377;28;20041;-70
2022/02/11 07:21:41;;;;;;;34.00;23.65;;;3.60;99.90;;;;;;5010704;28;20728;-71
2022/02/11 07:24:08;;;;;;;38.15;23.05;;;3.80;99.90;;;;;;5026217;28;20042;-71
2022/02/11 07:26:35;;;;;;;36.10;25.23;;;3.80;99.90;;;;;;5012439;28;20053;-73
2022/02/11 07:29:03;;;;;;;36.00;24.90;;;4.00;99.90;;;;;;5012792;28;20041;-72
2022/02/11 07:31:30;;;;;;;96.70;51.65;;;3.90;99.90;;;;;;5014560;28;20042;-77
2022/02/11 07:33:57;;;;;;;48.13;32.40;;;4.30;99.90;;;;;;4999229;28;20041;-73
2022/02/11 07:36:25;;;;;;;44.25;27.33;;;4.50;99.90;;;;;;5014018;28;20048;-75
2022/02/11 07:38:52;;;;;;;39.08;26.25;;;4.50;99.90;;;;;;5012411;28;20040;-71
2022/02/11 07:41:19;;;;;;;46.63;27.58;;;4.40;99.90;;;;;;5012377;28;20038;-69
2022/02/11 07:43:48;;;;;;;38.72;25.15;;;4.70;99.90;;;;;;5012555;28;20034;-71
2022/02/11 07:46:15;;;;;;;34.58;24.00;;;4.90;99.90;;;;;;5011096;28;20046;-70
2022/02/11 07:48:42;;;;;;;34.85;25.10;;;4.90;99.90;;;;;;5012366;28;20042;-70
2022/02/11 07:51:09;;;;;;;38.33;24.55;;;5.10;99.90;;;;;;5012468;28;20038;-71
2022/02/11 07:53:41;;;;;;;37.20;24.95;;;5.20;99.90;;;;;;4995523;28;20041;-72
2022/02/11 07:56:09;;;;;;;40.92;25.67;;;5.20;99.90;;;;;;5011595;28;20431;-73
2022/02/11 07:58:36;;;;;;;44.10;25.65;;;5.40;99.90;;;;;;5012448;28;20394;-70
2022/02/11 08:01:03;;;;;;;41.35;25.25;;;5.70;99.90;;;;;;5019780;28;20056;-71
2022/02/11 08:03:52;;;;;;;41.50;25.00;;;5.70;99.90;;;;;;5020821;28;20521;-69
2022/02/11 08:06:20;;;;;;;43.13;25.45;;;6.00;99.90;;;;;;5001715;28;20732;-71
2022/02/11 08:08:47;;;;;;;43.25;25.17;;;5.90;99.90;;;;;;5021713;28;20042;-72
2022/02/11 08:11:14;;;;;;;37.30;24.45;;;6.00;99.90;;;;;;5002676;28;20041;-72
2022/02/11 08:13:42;;;;;;;35.67;25.38;;;6.00;99.90;;;;;;5021083;28;20112;-71
2022/02/11 08:16:09;;;;;;;39.83;23.50;;;5.80;99.90;;;;;;5004612;28;20046;-69
2022/02/11 08:18:36;;;;;;;30.65;21.83;;;5.90;99.90;;;;;;5019784;28;20038;-72
2022/02/11 08:21:14;;;;;;;36.22;21.65;;;5.80;99.90;;;;;;5022223;28;20053;-70
2022/02/11 08:23:41;;;;;;;32.58;22.60;;;5.80;99.90;;;;;;5020565;28;20049;-69
2022/02/11 08:26:09;;;;;;;37.25;24.25;;;6.30;99.90;;;;;;5020185;28;20033;-70
2022/02/11 08:28:39;;;;;;;37.53;25.58;;;6.70;99.90;;;;;;5015873;28;20494;-68
2022/02/11 08:31:06;;;;;;;37.78;25.70;;;6.90;99.90;;;;;;5019840;28;20410;-69
2022/02/11 08:33:34;;;;;;;36.70;24.02;;;7.00;99.90;;;;;;5017961;28;20542;-68
2022/02/11 08:36:02;;;;;;;37.78;24.10;;;7.00;99.90;;;;;;5020789;28;20033;-71
2022/02/11 08:38:29;;;;;;;38.10;25.35;;;6.90;99.90;;;;;;5021951;28;20033;-71
2022/02/11 08:40:59;;;;;;;35.67;22.98;;;7.10;99.90;;;;;;5020480;28;20112;-70
2022/02/11 08:43:27;;;;;;;35.53;24.95;;;7.20;99.90;;;;;;5018709;28;20444;-69
2022/02/11 08:45:54;;;;;;;45.80;25.63;;;7.40;99.90;;;;;;5021453;28;20470;-68
2022/02/11 08:48:22;;;;;;;34.88;24.17;;;7.60;99.90;;;;;;5021205;28;20034;-70
2022/02/11 08:50:49;;;;;;;35.20;25.58;;;7.60;99.90;;;;;;5019277;28;20134;-70
2022/02/11 08:53:31;;;;;;;41.15;24.90;;;7.50;99.90;;;;;;5021686;28;20435;-71
2022/02/11 08:56:06;;;;;;;36.42;25.42;;;7.50;99.90;;;;;;5020387;28;20042;-70
2022/02/11 08:58:35;;;;;;;37.60;24.45;;;7.50;99.90;;;;;;5017321;28;20104;-73
2022/02/11 09:01:04;;;;;;;79.68;47.67;;;7.50;99.90;;;;;;5019867;28;20041;-76
2022/02/11 09:03:32;;;;;;;117.38;69.65;;;7.90;99.90;;;;;;4999165;28;20132;-70
2022/02/11 09:06:04;;;;;;;41.65;29.95;;;8.10;99.90;;;;;;5011419;28;20077;-72
2022/02/11 09:08:35;;;;;;;39.00;26.90;;;8.20;99.90;;;;;;5011202;28;20046;-71
2022/02/11 09:11:04;;;;;;;34.85;24.52;;;8.10;99.90;;;;;;4993368;28;20505;-72
2022/02/11 09:13:31;;;;;;;33.33;23.70;;;8.20;99.90;;;;;;5011292;28;20368;-71
2022/02/11 09:15:58;;;;;;;34.55;24.55;;;8.20;99.90;;;;;;5010813;28;20044;-72
2022/02/11 09:18:26;;;;;;;36.15;24.55;;;8.00;99.90;;;;;;5011224;28;20038;-78
2022/02/11 09:20:54;;;;;;;35.58;24.25;;;8.10;99.90;;;;;;5014946;28;20379;-75
2022/02/11 09:23:23;;;;;;;34.08;22.45;;;8.30;99.90;;;;;;5030611;28;20079;-72
2022/02/11 09:25:51;;;;;;;29.52;19.67;;;8.50;99.90;;;;;;5022966;28;20103;-80
2022/02/11 09:28:19;;;;;;;29.70;20.30;;;8.40;99.90;;;;;;5019748;28;20048;-79
2022/02/11 09:30:46;;;;;;;28.10;19.88;;;8.60;99.90;;;;;;4993587;28;20046;-75
2022/02/11 09:33:13;;;;;;;31.85;19.85;;;8.80;99.90;;;;;;5009933;28;20394;-72
2022/02/11 09:35:42;;;;;;;31.17;20.80;;;9.00;99.90;;;;;;5014594;28;20125;-70
2022/02/11 09:38:09;;;;;;;31.27;22.48;;;9.30;99.90;;;;;;4992904;28;20506;-71
2022/02/11 09:40:44;;;;;;;29.02;19.75;;;9.40;99.90;;;;;;5010786;28;20034;-73
2022/02/11 09:43:12;;;;;;;28.20;19.83;;;9.60;99.90;;;;;;5028904;28;20049;-72
2022/02/11 09:45:42;;;;;;;24.98;18.88;;;9.10;99.90;;;;;;5030182;28;20029;-70
2022/02/11 09:48:08;;;;;;;28.45;19.15;;;9.00;99.90;;;;;;5030421;28;20438;-73
2022/02/11 09:50:34;;;;;;;26.27;17.42;;;9.40;99.90;;;;;;5021888;28;20025;-71
2022/02/11 09:53:08;;;;;;;23.48;17.30;;;9.50;99.90;;;;;;5020695;28;20042;-71
2022/02/11 09:55:40;;;;;;;27.02;17.60;;;9.50;99.90;;;;;;5022420;28;20048;-68
2022/02/11 09:58:16;;;;;;;27.25;18.95;;;9.80;99.90;;;;;;5021251;28;21414;-71
2022/02/11 10:00:49;;;;;;;23.85;16.95;;;9.80;99.90;;;;;;5017726;28;20041;-68
2022/02/11 10:03:24;;;;;;;26.52;17.20;;;9.90;99.90;;;;;;5017453;28;20053;-71
2022/02/11 10:06:01;;;;;;;24.30;16.88;;;10.20;99.90;;;;;;5018073;28;20077;-69
2022/02/11 10:08:34;;;;;;;24.38;16.83;;;10.50;99.90;;;;;;5020546;28;20040;-72
2022/02/11 10:11:02;;;;;;;21.10;15.52;;;10.80;99.90;;;;;;5023113;28;20108;-70
2022/02/11 10:13:33;;;;;;;21.55;14.45;;;10.70;99.90;;;;;;5023717;28;20041;-72
2022/02/11 10:16:10;;;;;;;23.35;15.20;;;11.00;99.90;;;;;;5019689;28;20064;-73
2022/02/11 10:18:42;;;;;;;17.30;13.23;;;10.70;99.90;;;;;;5025056;28;20037;-72
2022/02/11 10:21:12;;;;;;;22.90;14.52;;;11.10;99.90;;;;;;5023536;28;20021;-70
2022/02/11 10:23:42;;;;;;;19.63;14.13;;;11.20;99.90;;;;;;5004942;28;20068;-72
2022/02/11 10:26:13;;;;;;;20.10;14.13;;;11.30;99.90;;;;;;5022713;28;20100;-72
2022/02/11 10:28:47;;;;;;;21.73;15.38;;;11.00;99.90;;;;;;5022130;28;20038;-72
2022/02/11 10:31:26;;;;;;;21.77;15.90;;;11.10;99.90;;;;;;5022395;28;20036;-72
2022/02/11 10:34:00;;;;;;;19.85;14.95;;;11.20;99.90;;;;;;5003779;28;20470;-71
2022/02/11 10:36:33;;;;;;;22.23;15.18;;;11.60;99.90;;;;;;5002128;28;20039;-71
2022/02/11 10:39:25;;;;;;;22.67;15.60;;;12.00;98.80;;;;;;5023166;28;20175;-71
2022/02/11 10:42:06;;;;;;;21.98;15.02;;;12.20;98.40;;;;;;5020915;28;20057;-75
2022/02/11 10:44:37;;;;;;;22.65;15.00;;;12.60;97.40;;;;;;5020939;28;20038;-71
2022/02/11 10:47:12;;;;;;;21.08;15.75;;;12.20;97.10;;;;;;5019326;28;20550;-74
2022/02/11 10:49:42;;;;;;;26.10;16.60;;;12.30;97.70;;;;;;5021386;28;20049;-70
2022/02/11 10:52:22;;;;;;;24.83;16.27;;;12.80;96.80;;;;;;5021241;28;20045;-67
2022/02/11 10:54:56;;;;;;;21.27;15.02;;;13.00;95.90;;;;;;5004050;28;20042;-71
2022/02/11 10:57:31;;;;;;;20.42;15.27;;;13.20;95.20;;;;;;5022101;28;20033;-70
2022/02/11 11:00:04;;;;;;;20.40;15.88;;;13.20;94.60;;;;;;5022490;28;20062;-72
2022/02/11 11:02:31;;;;;;;45.60;31.33;;;13.20;94.70;;;;;;5023415;28;20193;-73
2022/02/11 11:04:58;;;;;;;26.40;18.42;;;13.10;97.00;;;;;;5022705;28;20041;-73
2022/02/11 11:07:28;;;;;;;23.55;18.02;;;13.50;95.80;;;;;;5020012;28;20044;-69
2022/02/11 11:10:16;;;;;;;20.02;15.60;;;13.80;93.00;;;;;;5019571;28;20130;-72
2022/02/11 11:12:56;;;;;;;23.25;15.98;;;13.60;92.60;;;;;;5021876;28;20040;-70
2022/02/11 11:15:26;;;;;;;22.15;14.63;;;14.50;90.60;;;;;;5020948;28;20044;-71
2022/02/11 11:17:55;;;;;;;23.63;15.60;;;15.30;85.50;;;;;;5022647;28;20374;-69
2022/02/11 11:20:25;;;;;;;30.63;15.45;;;15.30;83.80;;;;;;5021993;28;20479;-71
2022/02/11 11:22:57;;;;;;;;;;;15.70;81.70;;;;;;5004711;28;20076;-70
2022/02/11 11:25:24;;;;;;;23.92;16.70;;;16.30;79.30;;;;;;5018535;28;19921;-69
2022/02/11 11:27:53;;;;;;;22.80;16.63;;;16.20;78.20;;;;;;5022262;28;20044;-69
2022/02/11 11:30:21;;;;;;;26.25;17.30;;;16.20;78.30;;;;;;5005777;28;20382;-69
2022/02/11 11:33:07;;;;;;;26.85;17.10;;;16.60;76.70;;;;;;5021730;28;20038;-70
2022/02/11 11:35:55;;;;;;;24.83;17.83;;;15.90;77.20;;;;;;5021506;28;20034;-69
2022/02/11 11:38:23;;;;;;;24.35;18.00;;;15.10;80.00;;;;;;5022717;28;20405;-69
2022/02/11 11:41:18;;;;;;;27.20;17.65;;;15.20;80.80;;;;;;5020392;28;20379;-71
2022/02/11 11:43:52;;;;;;;23.52;16.80;;;15.10;80.90;;;;;;5012544;28;20036;-70
2022/02/11 11:46:20;;;;;;;22.95;17.13;;;15.60;80.80;;;;;;5012401;28;20034;-69
2022/02/11 11:49:00;;;;;;;27.40;16.83;;;16.00;78.50;;;;;;5012273;28;20049;-71
2022/02/11 11:51:34;;;;;;;23.67;17.02;;;15.60;79.90;;;;;;5012118;28;20059;-71
2022/02/11 11:54:23;;;;;;;24.60;16.73;;;15.80;79.30;;;;;;5012302;28;20056;-71
2022/02/11 11:56:53;;;;;;;21.08;15.90;;;15.90;78.30;;;;;;5011984;28;20137;-69
2022/02/11 11:59:32;;;;;;;23.92;16.30;;;15.80;78.10;;;;;;5011960;28;20038;-72
2022/02/11 12:02:03;;;;;;;19.55;15.63;;;15.90;78.20;;;;;;4994756;28;20045;-72
2022/02/11 12:04:34;;;;;;;;;;;16.40;75.90;;;;;;5012149;28;20038;-71
2022/02/11 12:07:06;;;;;;;21.25;15.45;;;16.20;75.60;;;;;;5012188;28;19925;-71
2022/02/11 12:09:34;;;;;;;23.63;14.52;;;16.40;75.40;;;;;;5011720;28;20045;-72
2022/02/11 12:12:07;;;;;;;20.13;14.07;;;16.40;74.60;;;;;;5011819;28;20263;-70
2022/02/11 12:14:37;;;;;;;22.35;14.13;;;16.30;73.70;;;;;;5011818;28;20038;-71
2022/02/11 12:17:08;;;;;;;21.65;15.30;;;16.50;73.80;;;;;;4994723;28;20045;-73
2022/02/11 12:19:36;;;;;;;16.25;12.02;;;16.90;72.70;;;;;;5002371;28;20423;-72
2022/02/11 12:22:07;;;;;;;20.83;14.38;;;17.20;71.60;;;;;;5011721;28;20046;-69
2022/02/11 12:27:33;;;;;;;131.20;121.95;;;17.40;69.70;;;;;;5011381;28;20042;-69
2022/02/11 12:30:17;;;;;;;24.92;17.58;;;17.30;70.10;;;;;;5011371;28;20045;-71
2022/02/11 12:32:57;;;;;;;19.38;13.15;;;17.50;69.60;;;;;;5011059;28;20038;-72
2022/02/11 12:35:34;;;;;;;17.58;11.55;;;17.90;67.70;;;;;;5011823;28;20042;-71
2022/02/11 12:38:03;;;;;;;19.65;13.20;;;17.80;67.20;;;;;;5011387;28;20479;-71
2022/02/11 12:40:36;;;;;;;18.60;13.27;;;17.90;66.00;;;;;;5011440;28;20038;-71
2022/02/11 12:43:06;;;;;;;19.23;14.27;;;18.30;65.90;;;;;;5011741;28;20061;-72
2022/02/11 12:45:39;;;;;;;21.70;14.25;;;17.90;66.40;;;;;;5011176;28;20060;-71
2022/02/11 12:48:13;;;;;;;18.38;14.13;;;18.10;65.20;;;;;;5011392;28;20048;-73
2022/02/11 12:50:53;;;;;;;18.98;14.55;;;18.50;64.10;;;;;;4977885;28;20041;-73
2022/02/11 12:53:23;;;;;;;18.93;13.43;;;19.40;62.40;;;;;;4978028;28;20046;-73
2022/02/11 12:55:50;;;;;;;21.13;14.57;;;19.80;61.00;;;;;;5011095;28;20279;-73
2022/02/11 12:58:20;;;;;;;18.55;14.45;;;20.20;60.20;;;;;;5011249;28;20052;-72
2022/02/11 13:00:50;;;;;;;18.75;14.20;;;20.20;59.20;;;;;;4994103;28;20128;-73
2022/02/11 13:03:19;;;;;;;18.92;16.08;;;19.90;59.40;;;;;;4978230;28;20049;-73
2022/02/11 13:05:51;;;;;;;18.10;13.82;;;19.40;59.90;;;;;;4993659;28;20352;-72
2022/02/11 13:08:27;;;;;;;16.63;14.15;;;19.80;58.80;;;;;;5011318;28;20060;-73
2022/02/11 13:11:06;;;;;;;18.02;13.82;;;20.40;57.60;;;;;;4977904;28;20059;-72
2022/02/11 13:13:35;;;;;;;20.17;13.40;;;20.50;56.70;;;;;;5024373;28;20434;-75
2022/02/11 13:16:05;;;;;;;16.67;14.05;;;21.60;54.70;;;;;;5030940;28;20385;-72
2022/02/11 13:18:38;;;;;;;18.73;13.65;;;22.00;53.20;;;;;;5030724;28;20048;-71
2022/02/11 13:21:09;;;;;;;15.57;12.40;;;21.90;52.50;;;;;;5017296;28;20037;-73
2022/02/11 13:23:37;;;;;;;18.15;11.77;;;22.70;51.90;;;;;;5011041;28;20041;-71
2022/02/11 13:26:12;;;;;;;17.27;10.85;;;23.00;50.50;;;;;;5011067;28;20034;-74
2022/02/11 13:28:45;;;;;;;19.25;11.23;;;22.80;50.20;;;;;;5011204;28;20034;-70
2022/02/11 13:31:13;;;;;;;14.07;11.90;;;23.10;49.90;;;;;;5015412;28;20041;-71
2022/02/11 13:33:41;;;;;;;18.13;12.13;;;23.10;49.10;;;;;;5015179;28;20424;-72
2022/02/11 13:36:11;;;;;;;15.20;11.23;;;23.30;49.00;;;;;;5011027;28;20376;-74
2022/02/11 13:38:48;;;;;;;18.13;11.32;;;23.20;48.70;;;;;;4993489;28;20434;-73
2022/02/11 13:41:16;;;;;;;13.55;10.27;;;23.40;48.10;;;;;;5010581;28;20107;-71
2022/02/11 13:43:57;;;;;;;14.32;10.52;;;23.00;48.70;;;;;;5012266;28;20045;-72
2022/02/11 13:46:55;;;;;;;15.02;9.43;;;23.40;48.80;;;;;;5014772;28;20037;-73
2022/02/11 13:49:23;;;;;;;14.57;9.95;;;22.70;48.30;;;;;;4996875;28;20044;-72
2022/02/11 13:55:06;;;;;;;11.65;8.32;;;22.70;48.30;;;;;;5014121;28;20033;-71
2022/02/11 13:57:35;;;;;;;13.60;7.80;;;22.30;48.50;;;;;;5013451;28;20092;-71
2022/02/11 14:00:33;;;;;;;9.95;6.80;;;22.80;47.90;;;;;;5013531;28;20479;-71
2022/02/11 14:03:00;;;;;;;13.13;7.43;;;23.10;47.50;;;;;;5014342;28;20049;-73
2022/02/11 14:05:29;;;;;;;39.20;32.65;;;23.10;47.50;;;;;;5014001;28;20120;-76
2022/02/11 14:07:57;;;;;;;69.20;58.23;;;23.50;48.00;;;;;;5014489;28;20434;-71
2022/02/11 14:10:24;;;;;;;12.77;10.38;;;23.40;47.90;;;;;;5014133;28;20045;-73
2022/02/11 14:13:22;;;;;;;9.93;6.88;;;23.00;47.70;;;;;;5013057;28;20675;-74
2022/02/11 14:15:49;;;;;;;11.82;6.30;;;22.60;47.30;;;;;;5010344;28;20050;-72
2022/02/11 14:18:16;;;;;;;8.27;6.10;;;22.70;47.10;;;;;;5017597;28;20498;-71
2022/02/11 14:20:43;;;;;;;8.82;6.00;;;22.70;47.30;;;;;;5023411;28;20375;-71
2022/02/11 14:23:15;;;;;;;9.55;6.50;;;22.80;47.40;;;;;;5013383;28;20402;-72
2022/02/11 14:25:43;;;;;;;9.07;5.72;;;23.20;47.10;;;;;;5013329;28;20037;-70
2022/02/11 14:28:12;;;;;;;8.30;5.70;;;23.20;46.40;;;;;;5013800;28;20042;-71
2022/02/11 14:30:41;;;;;;;10.20;5.38;;;23.40;46.30;;;;;;5013742;28;20546;-71
2022/02/11 14:33:09;;;;;;;6.97;5.05;;;23.50;46.00;;;;;;5014044;28;20040;-72
2022/02/11 14:35:37;;;;;;;7.18;4.90;;;23.60;45.20;;;;;;5013725;28;20030;-71
2022/02/11 14:38:04;;;;;;;7.45;5.03;;;23.00;45.10;;;;;;5013629;28;20037;-72
2022/02/11 14:40:32;;;;;;;9.07;5.50;;;22.50;45.70;;;;;;5013663;28;20395;-72
2022/02/11 14:43:04;;;;;;;9.13;6.20;;;22.30;45.80;;;;;;5013901;28;20046;-71
2022/02/11 14:45:32;;;;;;;9.80;7.20;;;22.10;46.80;;;;;;5013336;28;20030;-71
2022/02/11 14:48:02;;;;;;;11.40;7.43;;;21.90;47.40;;;;;;4996483;28;20045;-72
2022/02/11 14:50:30;;;;;;;14.02;7.45;;;22.10;47.10;;;;;;5013405;28;20443;-73
2022/02/11 14:52:58;;;;;;;11.70;7.75;;;22.10;47.20;;;;;;5013536;28;20471;-73
2022/02/11 14:55:26;;;;;;;11.68;7.90;;;22.80;46.40;;;;;;5012965;28;20040;-71
2022/02/11 14:57:57;;;;;;;11.05;7.45;;;23.70;45.70;;;;;;4996180;28;20095;-73
2022/02/11 15:00:24;;;;;;;10.85;7.13;;;24.30;45.00;;;;;;5013443;28;20068;-73
2022/02/11 15:02:52;;;;;;;10.77;6.90;;;24.50;44.50;;;;;;5013353;28;20034;-71
2022/02/11 15:05:19;;;;;;;10.57;7.65;;;24.40;44.30;;;;;;5012777;28;20038;-72
2022/02/11 15:07:46;;;;;;;11.32;8.05;;;23.80;44.80;;;;;;5013326;28;20486;-74
2022/02/11 15:10:16;;;;;;;12.90;8.23;;;24.10;44.80;;;;;;5013176;28;20048;-72
2022/02/11 15:12:43;;;;;;;12.38;7.97;;;24.30;44.60;;;;;;5012827;28;20072;-71
2022/02/11 15:15:10;;;;;;;12.90;7.88;;;24.50;44.20;;;;;;5012962;28;20054;-73
2022/02/11 15:17:38;;;;;;;11.55;7.82;;;24.10;44.20;;;;;;5012934;28;20064;-74
2022/02/11 15:20:05;;;;;;;11.43;8.25;;;22.20;46.00;;;;;;5026654;28;20045;-72
2022/02/11 15:22:33;;;;;;;12.30;7.82;;;20.20;49.00;;;;;;4979119;28;20069;-71
2022/02/11 15:25:00;;;;;;;13.05;7.88;;;18.80;51.50;;;;;;5012982;28;20065;-73
2022/02/11 15:27:28;;;;;;;11.05;7.72;;;18.00;53.10;;;;;;5012936;28;20468;-72
2022/02/11 15:29:58;;;;;;;13.27;8.05;;;17.50;54.30;;;;;;5012755;28;20045;-73
2022/02/11 15:32:25;;;;;;;12.32;7.75;;;17.00;54.80;;;;;;5012832;28;20041;-72
2022/02/11 15:34:52;;;;;;;12.30;7.38;;;16.60;55.80;;;;;;5009758;28;20039;-71
2022/02/11 15:37:20;;;;;;;12.10;7.78;;;16.40;56.50;;;;;;4993145;28;20064;-72
2022/02/11 15:39:47;;;;;;;16.65;8.57;;;16.30;57.00;;;;;;4992843;28;20037;-71
2022/02/11 15:42:15;;;;;;;15.05;9.48;;;16.10;57.60;;;;;;4992905;28;20075;-72
2022/02/11 15:44:43;;;;;;;19.85;10.32;;;15.70;58.80;;;;;;4992952;28;20042;-71
2022/02/11 15:47:10;;;;;;;20.42;10.65;;;15.60;59.60;;;;;;4993058;28;20046;-73
2022/02/11 15:49:37;;;;;;;22.20;12.50;;;15.30;60.60;;;;;;4991100;28;20038;-71
2022/02/11 15:52:05;;;;;;;23.10;13.10;;;15.10;62.00;;;;;;4992310;28;20046;-70
2022/02/11 15:54:32;;;;;;;22.75;15.00;;;15.00;62.60;;;;;;4992604;28;20034;-70
2022/02/11 15:56:59;;;;;;;24.08;14.98;;;14.80;63.20;;;;;;4992593;28;20049;-71
2022/02/11 15:59:26;;;;;;;21.77;13.02;;;14.60;64.30;;;;;;4992228;28;20049;-71
2022/02/11 16:01:55;;;;;;;24.38;14.05;;;14.50;64.20;;;;;;4992775;28;20038;-73
2022/02/11 16:04:22;;;;;;;23.40;14.23;;;14.40;64.70;;;;;;4975264;28;20049;-72
2022/02/11 16:06:49;;;;;;;22.90;13.38;;;14.20;65.50;;;;;;4991874;28;20046;-74
2022/02/11 16:09:17;;;;;;;20.95;13.45;;;14.00;66.20;;;;;;4992306;28;20042;-74
2022/02/11 16:11:44;;;;;;;25.17;13.55;;;13.90;66.90;;;;;;4992474;28;20432;-74
2022/02/11 16:14:15;;;;;;;22.27;15.90;;;13.80;67.60;;;;;;4992712;28;20371;-71
2022/02/11 16:16:44;;;;;;;27.90;15.68;;;13.80;68.40;;;;;;4992563;28;20046;-71
2022/02/11 16:19:11;;;;;;;24.58;15.77;;;13.70;69.00;;;;;;5001731;28;20034;-76
2022/02/11 16:21:38;;;;;;;25.55;15.70;;;13.70;71.10;;;;;;5017865;28;20052;-75
2022/02/11 16:24:06;;;;;;;27.70;17.15;;;13.50;71.20;;;;;;5031816;28;20483;-76
2022/02/11 16:26:34;;;;;;;32.17;18.33;;;13.20;72.90;;;;;;4997835;28;20045;-73
2022/02/11 16:29:02;;;;;;;40.60;19.13;;;12.90;74.10;;;;;;5031791;28;20057;-75
2022/02/11 16:31:29;;;;;;;39.20;21.67;;;12.80;75.20;;;;;;5031651;28;20375;-78
2022/02/11 16:33:57;;;;;;;39.88;21.38;;;12.80;75.60;;;;;;5031298;28;20120;-78
2022/02/11 16:36:27;;;;;;;32.80;20.45;;;12.80;75.60;;;;;;5031467;28;20048;-75
2022/02/11 16:38:54;;;;;;;24.38;14.65;;;12.80;75.80;;;;;;5030177;28;20045;-77
2022/02/11 16:41:23;;;;;;;23.80;14.32;;;12.70;75.10;;;;;;5014078;28;20037;-76